Time;durP1;ratioP1;P1;durP2;ratioP2;P2;SDS_P1;SDS_P2;PMS_P1;PMS_P2;Temp;Humidity;BMP_temperature;BMP_pressure;BME280_temperature;BME280_humidity;BME280_pressure;Samples;Min_cycle;Max_cycle;Signal;HPM_P1;HPM_P2
2022/06/29 00:00:23;;;;;;;2.20;2.10;;;17.80;99.90;;;;;;7374962;19;20329;-71
2022/06/29 00:02:49;;;;;;;2.63;2.42;;;17.80;99.90;;;;;;7380836;19;20309;-70
2022/06/29 00:05:16;;;;;;;2.50;2.30;;;17.80;99.90;;;;;;7379677;19;20862;-72
2022/06/29 00:07:42;;;;;;;2.75;2.55;;;17.70;99.90;;;;;;7384396;19;20359;-69
2022/06/29 00:10:09;;;;;;;2.60;2.40;;;17.60;99.90;;;;;;7376530;19;20324;-71
2022/06/29 00:12:34;;;;;;;2.78;2.50;;;17.60;99.90;;;;;;7379545;19;20345;-71
2022/06/29 00:15:02;;;;;;;2.42;2.33;;;17.60;99.90;;;;;;7381080;19;20328;-70
2022/06/29 00:17:28;;;;;;;2.35;2.20;;;17.50;99.90;;;;;;7377956;19;20429;-71
2022/06/29 00:19:53;;;;;;;2.63;2.42;;;17.50;99.90;;;;;;7379956;19;20404;-71
2022/06/29 00:22:19;;;;;;;2.80;2.60;;;17.40;99.90;;;;;;7377035;19;20334;-70
2022/06/29 00:24:44;;;;;;;2.40;2.23;;;17.40;99.90;;;;;;7379470;19;20343;-70
2022/06/29 00:27:10;;;;;;;2.55;2.38;;;17.40;99.90;;;;;;7378876;19;20348;-70
2022/06/29 00:29:37;;;;;;;2.60;2.40;;;17.40;99.90;;;;;;7376365;19;20719;-70
2022/06/29 00:32:03;;;;;;;3.80;2.77;;;17.40;99.90;;;;;;7377772;19;20326;-71
2022/06/29 00:34:28;;;;;;;2.83;2.63;;;17.40;99.90;;;;;;7379909;19;20367;-72
2022/06/29 00:36:54;;;;;;;4.28;2.78;;;17.30;99.90;;;;;;7378869;19;20304;-71
2022/06/29 00:39:19;;;;;;;2.80;2.60;;;17.30;99.90;;;;;;7375176;19;20305;-71
2022/06/29 00:41:45;;;;;;;3.07;2.87;;;17.20;99.90;;;;;;7378370;19;20384;-71
2022/06/29 00:44:14;;;;;;;2.83;2.63;;;17.20;99.90;;;;;;7377957;19;20346;-70
2022/06/29 00:46:42;;;;;;;2.80;2.60;;;17.20;99.90;;;;;;7377561;19;20348;-70
2022/06/29 00:49:09;;;;;;;3.60;2.90;;;17.20;99.90;;;;;;7375462;19;20862;-71
2022/06/29 00:51:34;;;;;;;2.95;2.75;;;17.20;99.90;;;;;;7378443;19;20333;-70
2022/06/29 00:54:00;;;;;;;3.00;2.80;;;17.20;99.90;;;;;;7380718;19;20333;-71
2022/06/29 00:56:26;;;;;;;3.40;3.10;;;17.10;99.90;;;;;;7377144;19;20412;-70
2022/06/29 00:58:53;;;;;;;3.10;2.90;;;17.10;99.90;;;;;;7376348;19;20337;-70
2022/06/29 01:01:18;;;;;;;3.55;3.25;;;17.20;99.90;;;;;;7376610;19;20863;-71
2022/06/29 01:03:44;;;;;;;3.20;3.00;;;17.10;99.90;;;;;;7379923;19;20337;-70
2022/06/29 01:06:10;;;;;;;3.73;3.17;;;17.20;99.90;;;;;;7377727;19;21173;-70
2022/06/29 01:08:35;;;;;;;2.80;2.60;;;17.20;99.90;;;;;;7378666;19;20360;-70
2022/06/29 01:11:01;;;;;;;3.20;2.90;;;17.20;99.90;;;;;;7371807;19;20388;-70
2022/06/29 01:13:27;;;;;;;3.60;3.28;;;17.20;99.90;;;;;;7379276;19;20313;-71
2022/06/29 01:15:53;;;;;;;3.40;3.10;;;17.20;99.90;;;;;;7379112;19;20960;-71
2022/06/29 01:18:18;;;;;;;2.83;2.63;;;17.20;99.90;;;;;;7380169;19;20316;-70
2022/06/29 01:20:44;;;;;;;3.13;2.83;;;17.20;99.90;;;;;;7372406;19;20344;-71
2022/06/29 01:23:09;;;;;;;3.27;2.97;;;17.20;99.90;;;;;;7378925;19;20320;-72
2022/06/29 01:25:35;;;;;;;3.42;3.20;;;17.20;99.90;;;;;;7375264;19;20344;-72
2022/06/29 01:28:01;;;;;;;3.67;3.37;;;17.20;99.90;;;;;;7378715;19;20890;-69
2022/06/29 01:30:26;;;;;;;3.67;3.37;;;17.20;99.90;;;;;;7371750;19;20324;-70
2022/06/29 01:32:52;;;;;;;3.38;3.08;;;17.20;99.90;;;;;;7378958;19;20320;-70
2022/06/29 01:35:22;;;;;;;3.00;2.80;;;17.20;99.90;;;;;;7377664;19;20320;-72
2022/06/29 01:37:47;;;;;;;3.40;3.10;;;17.20;99.90;;;;;;7376377;19;20349;-70
2022/06/29 01:40:13;;;;;;;3.00;2.80;;;17.20;99.90;;;;;;7373299;19;21400;-71
2022/06/29 01:42:38;;;;;;;3.90;3.60;;;17.20;99.90;;;;;;7379039;19;20352;-71
2022/06/29 01:45:04;;;;;;;3.60;3.30;;;17.20;99.90;;;;;;7379407;19;20804;-70
2022/06/29 01:47:30;;;;;;;3.72;3.42;;;17.20;99.90;;;;;;7379304;19;20356;-72
2022/06/29 01:49:56;;;;;;;3.30;3.03;;;17.20;99.90;;;;;;7375123;19;20367;-71
2022/06/29 01:52:21;;;;;;;3.60;3.30;;;17.30;99.90;;;;;;7377387;19;20400;-71
2022/06/29 01:54:47;;;;;;;3.00;2.80;;;17.30;99.90;;;;;;7379278;19;20814;-71
2022/06/29 01:57:12;;;;;;;3.20;2.90;;;17.30;99.90;;;;;;7376953;19;20328;-70
2022/06/29 01:59:38;;;;;;;3.20;3.00;;;17.30;99.90;;;;;;7374481;19;20352;-70
2022/06/29 02:02:03;;;;;;;2.87;2.67;;;17.30;99.90;;;;;;7375700;19;20345;-70
2022/06/29 02:04:29;;;;;;;2.85;2.65;;;17.30;99.90;;;;;;7377716;19;20316;-71
2022/06/29 02:06:55;;;;;;;3.60;3.30;;;17.40;99.90;;;;;;7377193;19;20343;-71
2022/06/29 02:09:20;;;;;;;3.80;3.50;;;17.40;99.90;;;;;;7373057;19;20309;-70
2022/06/29 02:11:46;;;;;;;3.50;3.20;;;17.40;99.90;;;;;;7375781;19;20348;-70
2022/06/29 02:14:13;;;;;;;4.30;3.80;;;17.40;99.90;;;;;;7377610;19;20865;-71
2022/06/29 02:16:38;;;;;;;4.00;3.60;;;17.40;99.90;;;;;;7375648;19;20356;-71
2022/06/29 02:19:04;;;;;;;4.28;3.88;;;17.40;99.90;;;;;;7373256;19;20340;-71
2022/06/29 02:21:29;;;;;;;4.33;3.70;;;17.40;99.90;;;;;;7374831;19;21102;-73
2022/06/29 02:23:55;;;;;;;4.15;3.75;;;17.40;99.90;;;;;;7381344;19;20447;-70
2022/06/29 02:26:21;;;;;;;3.83;3.53;;;17.40;99.90;;;;;;7381694;19;20335;-70
2022/06/29 02:28:47;;;;;;;3.75;3.45;;;17.40;99.90;;;;;;7380100;19;20352;-71
2022/06/29 02:36:41;;;;;;;4.20;3.80;;;17.50;99.90;;;;;;7280300;19;2006292;-70
2022/06/29 02:39:06;;;;;;;4.70;3.83;;;17.50;99.90;;;;;;7378420;19;20463;-70
2022/06/29 02:41:32;;;;;;;4.13;3.67;;;17.50;99.90;;;;;;7383386;19;20329;-71
2022/06/29 02:43:58;;;;;;;3.50;3.20;;;17.50;99.90;;;;;;7382894;19;20778;-71
2022/06/29 02:46:23;;;;;;;4.50;4.10;;;17.50;99.90;;;;;;7382309;19;21039;-70
2022/06/29 02:48:49;;;;;;;4.72;4.20;;;17.50;99.90;;;;;;7379546;19;20325;-71
2022/06/29 02:51:14;;;;;;;4.40;4.00;;;17.60;99.90;;;;;;7381848;19;20685;-71
2022/06/29 02:53:40;;;;;;;4.00;3.70;;;17.50;99.90;;;;;;7382877;19;20337;-70
2022/06/29 02:56:05;;;;;;;4.17;3.73;;;17.40;99.90;;;;;;7381129;19;20320;-71
2022/06/29 02:58:31;;;;;;;3.63;3.30;;;17.50;99.90;;;;;;7383117;19;20661;-71
2022/06/29 03:00:57;;;;;;;4.33;3.93;;;17.50;99.90;;;;;;7375442;19;20388;-71
2022/06/29 03:03:22;;;;;;;5.33;3.83;;;17.50;99.90;;;;;;7381880;19;20860;-70
2022/06/29 03:05:48;;;;;;;4.33;4.00;;;17.50;99.90;;;;;;7379655;19;20340;-71
2022/06/29 03:08:13;;;;;;;4.32;3.92;;;17.50;99.90;;;;;;7384662;19;20324;-71
2022/06/29 03:10:39;;;;;;;5.83;4.20;;;17.50;99.90;;;;;;7380845;19;20880;-70
2022/06/29 03:13:04;;;;;;;3.93;3.63;;;17.50;99.90;;;;;;7379755;19;20431;-70
2022/06/29 03:15:30;;;;;;;4.00;3.70;;;17.40;99.90;;;;;;7382531;19;20688;-70
2022/06/29 03:17:56;;;;;;;4.57;4.15;;;17.50;99.90;;;;;;7380671;19;20400;-70
2022/06/29 03:20:22;;;;;;;3.90;3.60;;;17.50;99.90;;;;;;7359829;19;20707;-70
2022/06/29 03:22:47;;;;;;;4.47;4.07;;;17.50;99.90;;;;;;7373346;19;20333;-70
2022/06/29 03:25:14;;;;;;;4.67;4.27;;;17.60;99.90;;;;;;7378914;19;20357;-71
2022/06/29 03:27:39;;;;;;;4.57;4.18;;;17.60;99.90;;;;;;7381948;19;20372;-71
2022/06/29 03:30:05;;;;;;;4.63;4.22;;;17.60;99.90;;;;;;7377664;19;20324;-70
2022/06/29 03:32:31;;;;;;;4.77;4.27;;;17.70;99.90;;;;;;7380208;19;20978;-71
2022/06/29 03:34:57;;;;;;;4.35;4.03;;;17.70;99.90;;;;;;7379802;19;20846;-70
2022/06/29 03:37:22;;;;;;;4.60;4.20;;;17.70;99.90;;;;;;7381090;19;20305;-71
2022/06/29 03:39:48;;;;;;;4.70;4.30;;;17.60;99.90;;;;;;7378353;19;20349;-71
2022/06/29 03:42:14;;;;;;;5.03;4.63;;;17.70;99.90;;;;;;7377452;19;20420;-71
2022/06/29 03:44:39;;;;;;;4.60;4.18;;;17.70;99.90;;;;;;7380423;19;20368;-71
2022/06/29 03:47:07;;;;;;;4.18;3.88;;;17.70;99.90;;;;;;7384162;19;21143;-72
2022/06/29 03:49:36;;;;;;;5.50;5.00;;;17.70;99.90;;;;;;7381044;19;20788;-71
2022/06/29 03:52:02;;;;;;;5.03;4.53;;;17.60;99.90;;;;;;7370525;19;20328;-71
2022/06/29 03:54:28;;;;;;;5.03;4.63;;;17.60;99.90;;;;;;7381947;19;20384;-71
2022/06/29 03:56:54;;;;;;;4.95;4.55;;;17.60;99.90;;;;;;7380651;19;20332;-71
2022/06/29 03:59:20;;;;;;;6.30;4.88;;;17.60;99.90;;;;;;7377414;19;20316;-71
2022/06/29 04:01:46;;;;;;;4.78;4.28;;;17.60;99.90;;;;;;7377538;19;21060;-71
2022/06/29 04:04:12;;;;;;;5.10;4.68;;;17.70;99.90;;;;;;7381086;19;20380;-71
2022/06/29 04:06:37;;;;;;;4.63;4.22;;;17.70;99.90;;;;;;7379298;19;21012;-70
2022/06/29 04:09:03;;;;;;;4.47;4.07;;;17.70;99.90;;;;;;7378236;19;20320;-71
2022/06/29 04:14:13;;;;;;;4.60;4.10;;;17.80;99.90;;;;;;7381705;19;20313;-71
2022/06/29 04:16:38;;;;;;;4.77;4.37;;;17.90;99.90;;;;;;7378778;19;20336;-71
2022/06/29 04:19:04;;;;;;;4.70;4.30;;;17.90;99.90;;;;;;7377545;19;21377;-70
2022/06/29 04:21:29;;;;;;;4.82;4.43;;;18.00;99.90;;;;;;7378483;19;20320;-71
2022/06/29 04:23:55;;;;;;;6.07;4.80;;;18.10;99.90;;;;;;7380012;19;20828;-71
2022/06/29 04:26:21;;;;;;;4.40;4.00;;;18.10;99.90;;;;;;7380540;19;20297;-72
2022/06/29 04:28:46;;;;;;;4.43;4.03;;;18.10;99.90;;;;;;7377251;19;20452;-71
2022/06/29 04:31:12;;;;;;;5.35;4.30;;;18.20;99.90;;;;;;7375357;19;20305;-74
2022/06/29 04:33:37;;;;;;;4.90;4.50;;;18.20;99.90;;;;;;7380370;19;20369;-71
2022/06/29 04:36:03;;;;;;;5.47;4.87;;;18.20;99.90;;;;;;7378573;19;20341;-72
2022/06/29 04:38:28;;;;;;;5.80;4.33;;;18.20;99.90;;;;;;7381246;19;20869;-71
2022/06/29 04:40:54;;;;;;;4.80;4.40;;;18.20;99.90;;;;;;7377375;19;20333;-71
2022/06/29 04:43:20;;;;;;;4.97;4.50;;;18.20;99.90;;;;;;7379148;19;20318;-71
2022/06/29 04:48:29;;;;;;;4.90;4.50;;;18.30;99.90;;;;;;7262942;19;2004493;-71
2022/06/29 04:50:55;;;;;;;4.80;4.40;;;18.30;99.90;;;;;;7374674;19;20340;-72
2022/06/29 04:53:21;;;;;;;5.05;4.00;;;18.40;99.90;;;;;;7382081;19;20373;-71
2022/06/29 04:55:46;;;;;;;5.00;4.60;;;18.40;99.90;;;;;;7373857;19;20356;-71
2022/06/29 04:58:12;;;;;;;4.60;4.20;;;18.40;99.90;;;;;;7381333;19;20855;-72
2022/06/29 05:00:37;;;;;;;4.47;4.07;;;18.40;99.90;;;;;;7370425;19;20411;-72
2022/06/29 05:03:03;;;;;;;4.10;3.70;;;18.50;99.90;;;;;;7380580;19;20376;-71
2022/06/29 05:05:29;;;;;;;4.23;3.87;;;18.60;99.90;;;;;;7376436;19;21126;-71
2022/06/29 05:07:54;;;;;;;4.47;4.07;;;18.60;99.90;;;;;;7379626;19;20380;-71
2022/06/29 05:10:20;;;;;;;4.25;3.85;;;18.70;99.90;;;;;;7372250;19;20909;-72
2022/06/29 05:12:45;;;;;;;4.27;3.63;;;18.80;99.90;;;;;;7368507;19;20328;-72
2022/06/29 05:15:11;;;;;;;3.93;3.53;;;18.90;99.90;;;;;;7371777;19;20340;-71
2022/06/29 05:17:37;;;;;;;3.08;2.88;;;18.90;99.90;;;;;;7376676;19;20356;-73
2022/06/29 05:20:04;;;;;;;3.50;3.20;;;18.90;99.90;;;;;;7367397;19;20332;-71
2022/06/29 05:22:29;;;;;;;3.47;3.17;;;19.00;99.90;;;;;;7375805;19;20345;-72
2022/06/29 05:24:55;;;;;;;3.43;3.13;;;19.10;99.90;;;;;;7378295;19;20305;-73
2022/06/29 05:27:21;;;;;;;3.23;3.03;;;19.20;99.90;;;;;;7377243;19;20392;-72
2022/06/29 05:29:46;;;;;;;7.43;3.60;;;19.20;99.90;;;;;;7373956;19;20368;-73
2022/06/29 05:32:12;;;;;;;3.67;3.37;;;19.20;99.90;;;;;;7373753;19;20427;-72
2022/06/29 05:34:37;;;;;;;3.10;2.90;;;19.20;99.90;;;;;;7376682;19;20345;-75
2022/06/29 05:37:03;;;;;;;3.00;2.70;;;19.20;99.90;;;;;;7379884;19;20407;-72
2022/06/29 05:39:29;;;;;;;3.40;3.10;;;19.30;99.90;;;;;;7372273;19;20974;-73
2022/06/29 05:41:54;;;;;;;3.60;3.30;;;19.30;99.90;;;;;;7374614;19;20337;-72
2022/06/29 05:44:20;;;;;;;3.33;3.03;;;19.40;99.90;;;;;;7378346;19;20301;-73
2022/06/29 05:46:45;;;;;;;4.10;3.70;;;19.40;99.90;;;;;;7377431;19;20317;-77
2022/06/29 05:49:11;;;;;;;3.80;3.50;;;19.50;99.90;;;;;;7374784;19;20356;-72
2022/06/29 05:51:36;;;;;;;3.77;3.47;;;19.50;99.90;;;;;;7374018;19;21062;-72
2022/06/29 05:54:02;;;;;;;3.43;3.10;;;19.50;99.90;;;;;;7379151;19;20328;-72
2022/06/29 05:56:28;;;;;;;3.63;3.08;;;19.50;99.90;;;;;;7378937;19;20316;-71
2022/06/29 05:58:53;;;;;;;3.90;3.60;;;19.50;99.90;;;;;;7383637;19;20315;-72
2022/06/29 06:01:19;;;;;;;3.60;3.30;;;19.50;99.90;;;;;;7378500;19;20320;-73
2022/06/29 06:03:44;;;;;;;3.57;3.30;;;19.60;99.90;;;;;;7382192;19;20317;-73
2022/06/29 06:06:10;;;;;;;3.30;3.00;;;19.50;99.90;;;;;;7381280;19;20336;-73
2022/06/29 06:08:36;;;;;;;2.67;2.47;;;19.50;99.90;;;;;;7378170;19;20378;-73
2022/06/29 06:11:01;;;;;;;3.37;3.07;;;19.50;99.90;;;;;;7369380;19;20796;-74
2022/06/29 06:13:27;;;;;;;2.50;2.30;;;19.50;99.90;;;;;;7377234;19;20328;-75
2022/06/29 06:15:53;;;;;;;2.70;2.50;;;19.60;99.90;;;;;;7375769;19;20870;-75
2022/06/29 06:18:18;;;;;;;3.00;2.70;;;19.60;99.90;;;;;;7379696;19;20352;-72
2022/06/29 06:20:44;;;;;;;3.30;3.00;;;19.60;99.90;;;;;;7371546;19;20390;-74
2022/06/29 06:23:09;;;;;;;3.13;2.92;;;19.60;99.90;;;;;;7380624;19;20394;-75
2022/06/29 06:25:35;;;;;;;4.50;2.83;;;19.60;99.90;;;;;;7379511;19;20300;-73
2022/06/29 06:28:00;;;;;;;3.37;3.07;;;19.50;99.90;;;;;;7381172;19;20352;-72
2022/06/29 06:30:27;;;;;;;2.80;2.60;;;19.60;99.90;;;;;;7374681;19;20419;-72
2022/06/29 06:32:52;;;;;;;2.80;2.60;;;19.60;99.90;;;;;;7380846;19;20321;-72
2022/06/29 06:35:19;;;;;;;3.25;2.95;;;19.60;99.90;;;;;;7379856;19;20666;-73
2022/06/29 06:37:46;;;;;;;2.72;2.53;;;19.60;99.90;;;;;;7379838;19;20335;-74
2022/06/29 06:42:56;;;;;;;2.75;2.55;;;19.60;99.90;;;;;;7379676;19;20336;-74
2022/06/29 06:45:21;;;;;;;3.47;3.17;;;19.70;99.90;;;;;;7379158;19;20297;-72
2022/06/29 06:47:47;;;;;;;3.30;3.00;;;19.70;99.90;;;;;;7381931;19;20333;-72
2022/06/29 06:50:12;;;;;;;3.47;2.70;;;19.60;99.90;;;;;;7373260;19;20392;-74
2022/06/29 06:52:38;;;;;;;3.60;3.10;;;19.60;99.90;;;;;;7379452;19;20327;-76
2022/06/29 06:55:04;;;;;;;3.10;2.90;;;19.70;99.90;;;;;;7379398;19;20927;-74
2022/06/29 06:57:29;;;;;;;3.17;2.87;;;19.70;99.90;;;;;;7382075;19;20315;-77
2022/06/29 06:59:55;;;;;;;3.15;2.92;;;19.70;99.90;;;;;;7375728;19;20358;-75
2022/06/29 07:02:21;;;;;;;3.40;3.10;;;19.60;99.90;;;;;;7379601;19;20325;-71
2022/06/29 07:04:46;;;;;;;3.17;2.97;;;19.60;99.90;;;;;;7380099;19;20336;-72
2022/06/29 07:07:15;;;;;;;2.75;2.55;;;19.60;99.90;;;;;;7378024;19;21220;-73
2022/06/29 07:09:40;;;;;;;3.33;2.85;;;19.60;99.90;;;;;;7375444;19;20352;-72
2022/06/29 07:12:06;;;;;;;3.20;2.90;;;19.60;99.90;;;;;;7375006;19;20694;-72
2022/06/29 07:14:32;;;;;;;3.65;3.20;;;19.60;99.90;;;;;;7380041;19;20321;-74
2022/06/29 07:16:57;;;;;;;3.47;3.17;;;19.50;99.90;;;;;;7379050;19;20312;-75
2022/06/29 07:19:23;;;;;;;3.20;2.90;;;19.50;99.90;;;;;;7375359;19;20309;-72
2022/06/29 07:21:49;;;;;;;3.20;3.00;;;19.50;99.90;;;;;;7377485;19;20974;-74
2022/06/29 07:24:14;;;;;;;4.10;2.75;;;19.50;99.90;;;;;;7379142;19;20313;-74
2022/06/29 07:26:40;;;;;;;3.30;3.00;;;19.60;99.90;;;;;;7378646;19;20327;-77
2022/06/29 07:29:05;;;;;;;2.80;2.60;;;19.50;99.90;;;;;;7376671;19;20438;-73
2022/06/29 07:31:31;;;;;;;3.17;2.80;;;19.60;99.90;;;;;;7377018;19;20309;-71
2022/06/29 07:33:56;;;;;;;3.28;3.00;;;19.70;99.90;;;;;;7380720;19;20759;-72
2022/06/29 07:36:22;;;;;;;3.17;2.97;;;19.70;99.90;;;;;;7379646;19;20316;-75
2022/06/29 07:38:47;;;;;;;4.17;3.20;;;19.60;99.90;;;;;;7376637;19;20716;-74
2022/06/29 07:41:13;;;;;;;3.60;2.77;;;19.50;99.90;;;;;;7376251;19;20336;-77
2022/06/29 07:43:39;;;;;;;3.88;3.05;;;19.60;99.90;;;;;;7382724;19;20654;-72
2022/06/29 07:46:04;;;;;;;3.83;3.53;;;19.60;99.90;;;;;;7379290;19;20312;-72
2022/06/29 07:48:30;;;;;;;3.27;2.97;;;19.50;99.90;;;;;;7381319;19;20366;-73
2022/06/29 07:50:55;;;;;;;3.43;3.10;;;19.50;99.90;;;;;;7373823;19;20357;-74
2022/06/29 07:53:21;;;;;;;3.28;2.97;;;19.50;99.90;;;;;;7381092;19;20400;-71
2022/06/29 07:55:47;;;;;;;3.28;2.97;;;19.50;99.90;;;;;;7379033;19;20641;-75
2022/06/29 07:58:16;;;;;;;3.17;2.97;;;19.50;99.90;;;;;;7380042;19;20312;-77
2022/06/29 08:00:41;;;;;;;3.58;3.10;;;19.50;99.90;;;;;;7371578;19;20883;-72
2022/06/29 08:03:07;;;;;;;3.47;3.13;;;19.50;99.90;;;;;;7377336;19;20344;-77
2022/06/29 08:05:33;;;;;;;3.78;3.47;;;19.50;99.90;;;;;;7377399;19;21181;-74
2022/06/29 08:07:59;;;;;;;3.45;3.15;;;19.50;99.90;;;;;;7380534;19;20321;-72
2022/06/29 08:10:25;;;;;;;3.93;3.60;;;19.60;99.90;;;;;;7372997;19;20395;-75
2022/06/29 08:12:50;;;;;;;4.00;3.53;;;19.60;99.90;;;;;;7378381;19;20372;-75
2022/06/29 08:15:17;;;;;;;3.88;3.58;;;19.70;99.90;;;;;;7376958;19;20329;-75
2022/06/29 08:17:43;;;;;;;4.07;3.67;;;19.70;99.90;;;;;;7379917;19;20333;-71
2022/06/29 08:20:09;;;;;;;4.15;3.42;;;19.80;99.90;;;;;;7372792;19;20336;-73
2022/06/29 08:22:35;;;;;;;4.80;3.80;;;19.80;99.90;;;;;;7376151;19;20315;-72
2022/06/29 08:25:00;;;;;;;3.78;3.47;;;19.80;99.90;;;;;;7379263;19;20367;-76
2022/06/29 08:27:26;;;;;;;4.93;3.17;;;19.80;99.90;;;;;;7376786;19;20400;-75
2022/06/29 08:29:52;;;;;;;4.15;3.75;;;19.80;99.90;;;;;;7373934;19;20851;-74
2022/06/29 08:32:17;;;;;;;4.35;3.95;;;19.90;99.90;;;;;;7376079;19;20329;-75
2022/06/29 08:34:43;;;;;;;3.90;3.33;;;19.90;99.90;;;;;;7376091;19;20375;-72
2022/06/29 08:37:08;;;;;;;3.90;3.60;;;19.90;99.90;;;;;;7375259;19;20361;-71
2022/06/29 08:39:34;;;;;;;3.88;3.53;;;20.00;99.90;;;;;;7374936;19;20356;-73
2022/06/29 08:42:01;;;;;;;3.72;3.42;;;20.00;99.90;;;;;;7375237;19;20312;-75
2022/06/29 08:44:29;;;;;;;3.50;3.22;;;20.00;99.90;;;;;;7375800;19;20419;-75
2022/06/29 08:46:54;;;;;;;3.20;2.90;;;20.00;99.90;;;;;;7371777;19;21248;-72
2022/06/29 08:49:21;;;;;;;4.90;3.10;;;20.10;99.90;;;;;;7371539;19;20435;-77
2022/06/29 08:51:46;;;;;;;3.88;3.58;;;20.20;99.90;;;;;;7374890;19;20356;-74
2022/06/29 08:54:13;;;;;;;3.10;2.90;;;20.20;99.90;;;;;;7377692;19;20409;-75
2022/06/29 08:56:39;;;;;;;3.10;2.90;;;20.30;99.90;;;;;;7375613;19;20809;-74
2022/06/29 08:59:05;;;;;;;2.80;2.60;;;20.30;99.90;;;;;;7373114;19;20324;-75
2022/06/29 09:01:30;;;;;;;3.50;3.20;;;20.30;99.90;;;;;;7373910;19;20329;-73
2022/06/29 09:03:56;;;;;;;2.60;2.40;;;20.30;99.90;;;;;;7379811;19;20336;-75
2022/06/29 09:06:22;;;;;;;3.63;2.92;;;20.20;99.90;;;;;;7374258;19;21238;-73
2022/06/29 09:08:47;;;;;;;2.78;2.58;;;20.20;99.90;;;;;;7375069;19;20354;-72
2022/06/29 09:11:23;;;;;;;2.97;2.33;;;20.30;99.90;;;;;;7372129;19;20739;-77
2022/06/29 09:14:08;;;;;;;3.20;2.60;;;20.40;99.90;;;;;;7376424;19;20320;-75
2022/06/29 09:17:03;;;;;;;2.57;2.37;;;20.50;99.90;;;;;;7272501;19;2004503;-73
2022/06/29 09:19:34;;;;;;;2.63;2.25;;;20.60;99.90;;;;;;7372368;19;20336;-75
2022/06/29 09:22:00;;;;;;;2.72;2.53;;;20.60;99.90;;;;;;7376060;19;20324;-72
2022/06/29 09:24:28;;;;;;;2.40;2.20;;;20.60;99.90;;;;;;7375846;19;20317;-73
2022/06/29 09:26:58;;;;;;;2.07;1.97;;;20.70;99.90;;;;;;7374569;19;20350;-74
2022/06/29 09:29:24;;;;;;;2.73;2.43;;;20.80;99.90;;;;;;7373253;19;20665;-72
2022/06/29 09:32:06;;;;;;;2.20;2.10;;;20.90;99.90;;;;;;7374667;19;20349;-72
2022/06/29 09:34:49;;;;;;;3.17;2.00;;;20.80;99.90;;;;;;7376448;19;20308;-75
2022/06/29 09:37:19;;;;;;;2.63;2.15;;;20.90;99.90;;;;;;7272894;19;2020109;-73
2022/06/29 09:39:46;;;;;;;2.63;1.90;;;21.00;99.90;;;;;;7372445;19;20344;-74
2022/06/29 09:42:15;;;;;;;2.45;2.25;;;21.00;99.90;;;;;;7373562;19;20679;-75
2022/06/29 09:44:41;;;;;;;2.20;2.10;;;20.90;99.90;;;;;;7375379;19;20397;-76
2022/06/29 09:47:08;;;;;;;2.40;2.20;;;21.00;99.90;;;;;;7373291;19;20321;-74
2022/06/29 09:49:35;;;;;;;2.35;2.15;;;21.00;99.90;;;;;;7370543;19;20360;-74
2022/06/29 09:52:02;;;;;;;2.15;1.95;;;21.00;99.90;;;;;;7373514;19;20309;-71
2022/06/29 09:54:54;;;;;;;2.10;2.00;;;21.00;99.90;;;;;;7375301;19;20316;-74
2022/06/29 09:57:26;;;;;;;2.55;2.08;;;20.80;99.90;;;;;;7271346;19;2004508;-74
2022/06/29 10:02:52;;;;;;;1.80;1.70;;;20.60;99.90;;;;;;7171270;19;2005470;-74
2022/06/29 10:05:23;;;;;;;2.03;1.93;;;20.40;99.90;;;;;;7373908;19;20883;-74
2022/06/29 10:07:52;;;;;;;2.00;1.90;;;20.20;99.90;;;;;;7375191;19;20447;-72
2022/06/29 10:10:19;;;;;;;2.13;1.63;;;20.00;99.90;;;;;;7370419;19;20799;-76
2022/06/29 10:16:08;;;;;;;2.90;1.80;;;19.80;99.90;;;;;;7271378;19;2004488;-77
2022/06/29 10:18:48;;;;;;;1.80;1.70;;;19.80;99.90;;;;;;7272482;19;2004474;-75
2022/06/29 10:21:25;;;;;;;1.70;1.60;;;19.80;99.90;;;;;;7370587;19;20316;-77
2022/06/29 10:23:51;;;;;;;2.05;1.38;;;19.70;99.90;;;;;;7375256;19;20320;-72
2022/06/29 10:26:38;;;;;;;1.50;1.40;;;19.60;99.90;;;;;;7374496;19;20321;-74
2022/06/29 10:29:06;;;;;;;1.50;1.40;;;19.40;99.90;;;;;;7271026;19;2004305;-72
2022/06/29 10:32:11;;;;;;;2.10;1.50;;;19.60;99.90;;;;;;7373289;19;20345;-71
2022/06/29 10:37:21;;;;;;;1.88;1.67;;;19.70;99.90;;;;;;7373327;19;20345;-77
2022/06/29 10:39:50;;;;;;;1.53;1.43;;;19.90;99.90;;;;;;7369228;19;20682;-76
2022/06/29 10:45:08;;;;;;;1.60;1.50;;;20.00;99.90;;;;;;7279269;19;2004340;-73
2022/06/29 10:47:33;;;;;;;1.53;1.43;;;20.20;99.90;;;;;;7380674;19;20330;-71
2022/06/29 10:50:21;;;;;;;1.50;1.40;;;20.30;99.90;;;;;;7374841;19;21193;-75
2022/06/29 10:52:48;;;;;;;1.80;1.40;;;20.50;99.90;;;;;;7280033;19;2004372;-73
2022/06/29 10:55:14;;;;;;;1.50;1.40;;;20.60;99.90;;;;;;7378997;19;20320;-74
2022/06/29 10:57:43;;;;;;;1.23;1.23;;;20.60;99.90;;;;;;7381712;19;20348;-76
2022/06/29 11:00:16;;;;;;;1.20;1.20;;;20.60;99.90;;;;;;7375189;19;20316;-74
2022/06/29 11:02:42;;;;;;;1.45;1.35;;;20.70;99.90;;;;;;7379363;19;20328;-72
2022/06/29 11:05:08;;;;;;;1.48;1.38;;;20.90;99.90;;;;;;7379697;19;20359;-71
2022/06/29 11:13:03;;;;;;;1.45;1.35;;;21.60;99.90;;;;;;7277376;19;2004356;-71
2022/06/29 11:15:47;;;;;;;1.40;1.30;;;21.70;99.90;;;;;;7379066;19;20293;-72
2022/06/29 11:18:16;;;;;;;1.70;1.30;;;21.80;99.90;;;;;;7277417;19;2004493;-73
2022/06/29 11:20:44;;;;;;;1.35;1.20;;;22.00;99.90;;;;;;7373835;19;20348;-74
2022/06/29 11:23:10;;;;;;;1.70;1.60;;;22.00;99.90;;;;;;7380726;19;20329;-75
2022/06/29 11:25:36;;;;;;;1.90;1.30;;;22.10;99.90;;;;;;7378745;19;20316;-74
2022/06/29 11:28:02;;;;;;;1.10;1.10;;;22.20;99.90;;;;;;7379449;19;20341;-71
2022/06/29 11:30:28;;;;;;;1.20;1.20;;;22.10;99.90;;;;;;7374716;19;21086;-74
2022/06/29 11:32:54;;;;;;;1.95;1.30;;;22.20;99.90;;;;;;7381282;19;20316;-77
2022/06/29 11:35:23;;;;;;;1.60;1.50;;;22.10;99.90;;;;;;7376951;19;20317;-77
2022/06/29 11:37:53;;;;;;;1.40;1.23;;;22.20;99.90;;;;;;7378907;19;20360;-73
2022/06/29 11:40:35;;;;;;;1.30;1.30;;;22.20;99.90;;;;;;7373393;19;20320;-72
2022/06/29 11:43:15;;;;;;;1.30;1.25;;;22.20;99.90;;;;;;7380616;19;20328;-71
2022/06/29 11:45:51;;;;;;;1.40;1.30;;;22.20;99.90;;;;;;7275876;19;2004497;-72
2022/06/29 11:48:26;;;;;;;1.60;1.50;;;22.30;99.90;;;;;;7379324;19;20332;-72
2022/06/29 11:50:59;;;;;;;1.45;1.30;;;22.30;99.90;;;;;;7376062;19;20357;-73
2022/06/29 11:53:44;;;;;;;1.30;1.20;;;22.30;99.90;;;;;;7379221;19;20962;-74
2022/06/29 11:56:14;;;;;;;1.13;1.13;;;22.30;99.90;;;;;;7276163;19;2004523;-71
2022/06/29 11:58:43;;;;;;;1.20;1.20;;;22.50;99.90;;;;;;7379104;19;20312;-74
2022/06/29 12:01:18;;;;;;;3.00;1.35;;;22.30;99.90;;;;;;7374279;19;20352;-74
2022/06/29 12:03:54;;;;;;;1.15;1.15;;;22.30;99.90;;;;;;7380598;19;20855;-73
2022/06/29 12:06:22;;;;;;;1.57;1.47;;;22.40;99.90;;;;;;7376273;19;20333;-73
2022/06/29 12:08:48;;;;;;;1.50;1.40;;;22.50;99.90;;;;;;7376408;19;21113;-73
2022/06/29 12:11:14;;;;;;;1.92;1.45;;;22.40;99.90;;;;;;7376062;19;20331;-73
2022/06/29 12:13:39;;;;;;;1.50;1.40;;;22.40;99.90;;;;;;7379643;19;20318;-74
2022/06/29 12:16:05;;;;;;;1.60;1.50;;;22.30;99.90;;;;;;7378224;19;20307;-72
2022/06/29 12:18:31;;;;;;;1.70;1.60;;;22.30;99.90;;;;;;7379291;19;20307;-73
2022/06/29 12:20:56;;;;;;;1.80;1.40;;;22.10;99.90;;;;;;7373819;19;20930;-73
2022/06/29 12:23:22;;;;;;;2.70;1.50;;;22.10;99.90;;;;;;7380051;19;20877;-72
2022/06/29 12:25:48;;;;;;;1.60;1.50;;;22.20;99.90;;;;;;7376194;19;20339;-71
2022/06/29 12:28:14;;;;;;;2.30;1.50;;;22.30;99.90;;;;;;7378741;19;20348;-73
2022/06/29 12:30:39;;;;;;;2.00;1.67;;;22.40;99.90;;;;;;7372073;19;20348;-73
2022/06/29 12:33:09;;;;;;;1.60;1.50;;;22.40;99.90;;;;;;7377564;19;20329;-72
2022/06/29 12:35:35;;;;;;;1.48;1.38;;;22.30;99.90;;;;;;7375853;19;20328;-73
2022/06/29 12:38:00;;;;;;;1.77;1.67;;;22.30;99.90;;;;;;7377576;19;20329;-74
2022/06/29 12:40:26;;;;;;;1.58;1.48;;;22.10;99.90;;;;;;7372668;19;20305;-74
2022/06/29 12:42:52;;;;;;;3.97;1.70;;;22.10;99.90;;;;;;7377246;19;20328;-76
2022/06/29 12:45:18;;;;;;;1.83;1.73;;;22.10;99.90;;;;;;7375962;19;20324;-72
2022/06/29 12:47:44;;;;;;;2.20;1.70;;;22.10;99.90;;;;;;7378358;19;20428;-74
2022/06/29 12:50:10;;;;;;;1.58;1.48;;;22.10;99.90;;;;;;7372409;19;20325;-73
2022/06/29 12:52:35;;;;;;;1.70;1.60;;;22.20;99.90;;;;;;7377099;19;20304;-76
2022/06/29 12:55:01;;;;;;;1.60;1.50;;;22.40;99.90;;;;;;7376977;19;20709;-71
2022/06/29 12:57:26;;;;;;;1.48;1.38;;;22.40;99.90;;;;;;7376917;19;20327;-73
2022/06/29 12:59:52;;;;;;;1.80;1.40;;;22.40;99.90;;;;;;7371266;19;20542;-74
2022/06/29 13:02:21;;;;;;;2.80;1.87;;;22.30;99.90;;;;;;7376109;19;20324;-73
2022/06/29 13:08:15;;;;;;;1.77;1.67;;;22.30;99.90;;;;;;7151244;19;2004671;-72
2022/06/29 13:10:41;;;;;;;1.60;1.50;;;22.20;99.90;;;;;;7367452;19;20919;-75
2022/06/29 13:13:06;;;;;;;1.70;1.60;;;22.30;99.90;;;;;;7374645;19;20332;-72
2022/06/29 13:15:32;;;;;;;1.63;1.53;;;22.40;99.90;;;;;;7374775;19;20324;-74
2022/06/29 13:17:58;;;;;;;1.77;1.63;;;22.40;99.90;;;;;;7375794;19;20340;-72